sensor_id;sensor_type;location;lat;lon;timestamp;pressure;altitude;pressure_sealevel;temperature;humidity
71903;BME280;59778;50.310;18.780;2022-12-29T00:12:41;98876.13;;;2.55;77.88
71903;BME280;59778;50.310;18.780;2022-12-29T00:28:35;98866.13;;;2.57;77.64
71903;BME280;59778;50.310;18.780;2022-12-29T00:44:14;98841.69;;;2.50;78.76
71903;BME280;59778;50.310;18.780;2022-12-29T00:59:37;98841.84;;;2.58;78.05
71903;BME280;59778;50.310;18.780;2022-12-29T01:14:59;98828.56;;;2.66;78.34
71903;BME280;59778;50.310;18.780;2022-12-29T01:30:20;98848.72;;;2.80;78.00
71903;BME280;59778;50.310;18.780;2022-12-29T01:45:45;98852.09;;;2.92;76.37
71903;BME280;59778;50.310;18.780;2022-12-29T02:01:08;98823.19;;;3.13;76.44
71903;BME280;59778;50.310;18.780;2022-12-29T02:16:52;98807.66;;;3.16;76.17
71903;BME280;59778;50.310;18.780;2022-12-29T02:32:45;98797.97;;;3.06;76.42
71903;BME280;59778;50.310;18.780;2022-12-29T02:48:54;98788.38;;;3.30;75.09
71903;BME280;59778;50.310;18.780;2022-12-29T03:04:39;98791.25;;;3.74;72.81
71903;BME280;59778;50.310;18.780;2022-12-29T03:20:08;98773.16;;;3.94;71.76
71903;BME280;59778;50.310;18.780;2022-12-29T03:35:32;98767.38;;;3.71;72.78
71903;BME280;59778;50.310;18.780;2022-12-29T03:50:54;98727.38;;;3.68;73.58
71903;BME280;59778;50.310;18.780;2022-12-29T04:06:15;98726.63;;;3.58;73.87
71903;BME280;59778;50.310;18.780;2022-12-29T04:21:36;98719.09;;;3.44;74.59
71903;BME280;59778;50.310;18.780;2022-12-29T04:36:58;98705.59;;;3.36;75.81
71903;BME280;59778;50.310;18.780;2022-12-29T04:52:19;98688.66;;;3.35;76.02
71903;BME280;59778;50.310;18.780;2022-12-29T05:07:40;98690.38;;;3.26;76.24
71903;BME280;59778;50.310;18.780;2022-12-29T05:23:02;98698.88;;;3.22;76.73
71903;BME280;59778;50.310;18.780;2022-12-29T05:38:23;98682.84;;;3.12;77.73
71903;BME280;59778;50.310;18.780;2022-12-29T05:53:44;98687.41;;;3.29;77.45
71903;BME280;59778;50.310;18.780;2022-12-29T06:09:06;98651.84;;;3.63;76.31
71903;BME280;59778;50.310;18.780;2022-12-29T06:24:27;98646.44;;;3.80;76.25
71903;BME280;59778;50.310;18.780;2022-12-29T06:39:48;98647.97;;;3.83;76.27
71903;BME280;59778;50.310;18.780;2022-12-29T06:55:10;98650.25;;;3.96;76.33
71903;BME280;59778;50.310;18.780;2022-12-29T07:10:31;98663.72;;;4.04;75.50
71903;BME280;59778;50.310;18.780;2022-12-29T07:26:06;98679.13;;;4.19;74.53
71903;BME280;59778;50.310;18.780;2022-12-29T07:41:28;98687.94;;;4.30;74.06
71903;BME280;59778;50.310;18.780;2022-12-29T07:56:49;98655.31;;;4.24;74.67
71903;BME280;59778;50.310;18.780;2022-12-29T08:12:12;98645.72;;;4.48;73.90
71903;BME280;59778;50.310;18.780;2022-12-29T08:27:33;98660.16;;;4.47;74.06
71903;BME280;59778;50.310;18.780;2022-12-29T08:42:55;98674.66;;;4.88;72.75
71903;BME280;59778;50.310;18.780;2022-12-29T08:58:16;98697.28;;;5.85;70.15
71903;BME280;59778;50.310;18.780;2022-12-29T09:13:38;98685.38;;;6.04;69.07
71903;BME280;59778;50.310;18.780;2022-12-29T09:29:00;98667.31;;;6.92;67.38
71903;BME280;59778;50.310;18.780;2022-12-29T09:59:57;98675.50;;;6.68;68.01
71903;BME280;59778;50.310;18.780;2022-12-29T10:31:24;98634.22;;;7.29;66.76
71903;BME280;59778;50.310;18.780;2022-12-29T10:46:56;98626.72;;;7.39;67.00
71903;BME280;59778;50.310;18.780;2022-12-29T11:02:25;98621.09;;;7.26;67.61
71903;BME280;59778;50.310;18.780;2022-12-29T11:17:53;98620.47;;;7.46;68.32
71903;BME280;59778;50.310;18.780;2022-12-29T11:33:17;98616.66;;;7.78;67.10
71903;BME280;59778;50.310;18.780;2022-12-29T11:48:39;98606.00;;;7.99;67.08
71903;BME280;59778;50.310;18.780;2022-12-29T12:04:06;98610.13;;;8.10;66.36
71903;BME280;59778;50.310;18.780;2022-12-29T12:35:12;98584.28;;;8.07;68.69
71903;BME280;59778;50.310;18.780;2022-12-29T12:50:52;98589.16;;;8.12;68.47
71903;BME280;59778;50.310;18.780;2022-12-29T13:37:18;98575.78;;;8.48;67.20
71903;BME280;59778;50.310;18.780;2022-12-29T13:52:47;98579.31;;;8.34;68.53
71903;BME280;59778;50.310;18.780;2022-12-29T14:08:17;98577.47;;;8.12;70.35
71903;BME280;59778;50.310;18.780;2022-12-29T14:23:49;98580.09;;;8.05;70.69
71903;BME280;59778;50.310;18.780;2022-12-29T14:39:42;98561.63;;;7.94;70.59
71903;BME280;59778;50.310;18.780;2022-12-29T15:10:35;98577.91;;;7.86;71.80
71903;BME280;59778;50.310;18.780;2022-12-29T15:26:00;98584.31;;;7.70;73.82
71903;BME280;59778;50.310;18.780;2022-12-29T15:41:27;98585.38;;;7.61;73.33
71903;BME280;59778;50.310;18.780;2022-12-29T15:56:50;98583.59;;;7.53;73.53
71903;BME280;59778;50.310;18.780;2022-12-29T16:12:23;98580.81;;;7.39;74.10
71903;BME280;59778;50.310;18.780;2022-12-29T16:27:46;98575.72;;;7.44;73.25
71903;BME280;59778;50.310;18.780;2022-12-29T16:43:20;98580.81;;;7.39;72.72
71903;BME280;59778;50.310;18.780;2022-12-29T16:58:50;98574.88;;;7.21;73.58
71903;BME280;59778;50.310;18.780;2022-12-29T17:14:19;98568.75;;;7.27;71.85
71903;BME280;59778;50.310;18.780;2022-12-29T17:29:42;98581.31;;;7.42;70.19
71903;BME280;59778;50.310;18.780;2022-12-29T17:45:04;98582.16;;;7.12;71.57
71903;BME280;59778;50.310;18.780;2022-12-29T18:00:28;98593.53;;;6.69;74.31
71903;BME280;59778;50.310;18.780;2022-12-29T18:15:51;98607.41;;;6.57;75.23
71903;BME280;59778;50.310;18.780;2022-12-29T18:31:20;98623.56;;;6.66;74.40
71903;BME280;59778;50.310;18.780;2022-12-29T18:46:43;98617.09;;;6.83;72.83
71903;BME280;59778;50.310;18.780;2022-12-29T19:02:04;98609.22;;;6.65;73.68
71903;BME280;59778;50.310;18.780;2022-12-29T19:17:25;98612.81;;;6.49;74.14
71903;BME280;59778;50.310;18.780;2022-12-29T19:32:50;98633.03;;;6.53;74.04
71903;BME280;59778;50.310;18.780;2022-12-29T19:48:17;98622.75;;;6.57;73.41
71903;BME280;59778;50.310;18.780;2022-12-29T20:03:40;98608.66;;;6.39;74.17
71903;BME280;59778;50.310;18.780;2022-12-29T20:19:01;98610.53;;;6.14;74.98
71903;BME280;59778;50.310;18.780;2022-12-29T20:34:24;98593.06;;;5.94;75.85
71903;BME280;59778;50.310;18.780;2022-12-29T20:49:46;98612.59;;;5.88;76.13
71903;BME280;59778;50.310;18.780;2022-12-29T21:05:07;98617.66;;;5.91;76.32
71903;BME280;59778;50.310;18.780;2022-12-29T21:20:29;98622.50;;;5.71;76.50
71903;BME280;59778;50.310;18.780;2022-12-29T21:35:52;98617.78;;;5.81;76.50
71903;BME280;59778;50.310;18.780;2022-12-29T21:51:14;98636.34;;;5.84;76.57
71903;BME280;59778;50.310;18.780;2022-12-29T22:06:54;98662.91;;;5.71;76.73
71903;BME280;59778;50.310;18.780;2022-12-29T22:22:33;98664.25;;;5.59;77.60
71903;BME280;59778;50.310;18.780;2022-12-29T22:37:55;98678.91;;;5.64;77.02
71903;BME280;59778;50.310;18.780;2022-12-29T22:53:16;98671.94;;;5.38;78.08
71903;BME280;59778;50.310;18.780;2022-12-29T23:08:38;98652.97;;;5.47;78.12
71903;BME280;59778;50.310;18.780;2022-12-29T23:23:59;98625.53;;;5.52;77.79
71903;BME280;59778;50.310;18.780;2022-12-29T23:39:24;98620.50;;;5.57;77.89
71903;BME280;59778;50.310;18.780;2022-12-29T23:54:45;98637.28;;;5.43;78.09
